sensor_id;sensor_type;location;lat;lon;timestamp;P1;durP1;ratioP1;P2;durP2;ratioP2
6463;SDS011;3265;42.694;23.282;2022-11-15T00:01:07;260.63;;;125.23;;
6463;SDS011;3265;42.694;23.282;2022-11-15T00:03:34;253.53;;;120.00;;
6463;SDS011;3265;42.694;23.282;2022-11-15T00:06:03;254.90;;;120.23;;
6463;SDS011;3265;42.694;23.282;2022-11-15T00:08:30;221.43;;;111.37;;
6463;SDS011;3265;42.694;23.282;2022-11-15T00:10:58;219.80;;;109.00;;
6463;SDS011;3265;42.694;23.282;2022-11-15T00:13:26;225.50;;;109.23;;
6463;SDS011;3265;42.694;23.282;2022-11-15T00:15:56;225.20;;;105.43;;
6463;SDS011;3265;42.694;23.282;2022-11-15T00:18:23;229.80;;;104.77;;
6463;SDS011;3265;42.694;23.282;2022-11-15T00:20:50;224.00;;;106.00;;
6463;SDS011;3265;42.694;23.282;2022-11-15T00:23:18;203.93;;;100.60;;
6463;SDS011;3265;42.694;23.282;2022-11-15T00:25:45;193.13;;;93.17;;
6463;SDS011;3265;42.694;23.282;2022-11-15T00:28:12;179.53;;;89.53;;
6463;SDS011;3265;42.694;23.282;2022-11-15T00:30:41;183.53;;;85.33;;
6463;SDS011;3265;42.694;23.282;2022-11-15T00:33:27;185.67;;;92.80;;
6463;SDS011;3265;42.694;23.282;2022-11-15T00:35:53;190.73;;;91.03;;
6463;SDS011;3265;42.694;23.282;2022-11-15T00:38:31;198.13;;;94.13;;
6463;SDS011;3265;42.694;23.282;2022-11-15T00:40:59;176.03;;;86.13;;
6463;SDS011;3265;42.694;23.282;2022-11-15T00:43:26;151.63;;;72.47;;
6463;SDS011;3265;42.694;23.282;2022-11-15T00:45:53;152.23;;;71.30;;
6463;SDS011;3265;42.694;23.282;2022-11-15T00:48:20;153.13;;;70.93;;
6463;SDS011;3265;42.694;23.282;2022-11-15T00:50:47;143.10;;;68.73;;
6463;SDS011;3265;42.694;23.282;2022-11-15T00:53:14;151.97;;;71.93;;
6463;SDS011;3265;42.694;23.282;2022-11-15T00:55:43;158.33;;;74.67;;
6463;SDS011;3265;42.694;23.282;2022-11-15T00:58:10;161.27;;;77.43;;
6463;SDS011;3265;42.694;23.282;2022-11-15T01:00:37;149.13;;;75.47;;
6463;SDS011;3265;42.694;23.282;2022-11-15T01:03:03;155.47;;;73.47;;
6463;SDS011;3265;42.694;23.282;2022-11-15T01:05:30;155.97;;;75.93;;
6463;SDS011;3265;42.694;23.282;2022-11-15T01:07:57;155.30;;;76.30;;
6463;SDS011;3265;42.694;23.282;2022-11-15T01:10:24;164.33;;;76.03;;
6463;SDS011;3265;42.694;23.282;2022-11-15T01:12:52;155.33;;;75.37;;
6463;SDS011;3265;42.694;23.282;2022-11-15T01:15:19;161.57;;;77.97;;
6463;SDS011;3265;42.694;23.282;2022-11-15T01:17:46;163.97;;;78.40;;
6463;SDS011;3265;42.694;23.282;2022-11-15T01:20:12;174.73;;;80.40;;
6463;SDS011;3265;42.694;23.282;2022-11-15T01:22:39;169.83;;;81.47;;
6463;SDS011;3265;42.694;23.282;2022-11-15T01:25:06;198.17;;;85.93;;
6463;SDS011;3265;42.694;23.282;2022-11-15T01:27:33;171.47;;;81.47;;
6463;SDS011;3265;42.694;23.282;2022-11-15T01:30:01;171.20;;;79.77;;
6463;SDS011;3265;42.694;23.282;2022-11-15T01:32:28;166.93;;;78.33;;
6463;SDS011;3265;42.694;23.282;2022-11-15T01:34:55;161.57;;;72.07;;
6463;SDS011;3265;42.694;23.282;2022-11-15T01:37:22;147.13;;;71.20;;
6463;SDS011;3265;42.694;23.282;2022-11-15T01:39:49;166.67;;;71.70;;
6463;SDS011;3265;42.694;23.282;2022-11-15T01:42:15;134.93;;;63.80;;
6463;SDS011;3265;42.694;23.282;2022-11-15T01:44:43;138.60;;;62.57;;
6463;SDS011;3265;42.694;23.282;2022-11-15T01:47:15;138.50;;;64.83;;
6463;SDS011;3265;42.694;23.282;2022-11-15T01:49:48;149.47;;;66.43;;
6463;SDS011;3265;42.694;23.282;2022-11-15T01:52:19;158.77;;;74.10;;
6463;SDS011;3265;42.694;23.282;2022-11-15T01:54:48;163.67;;;72.00;;
6463;SDS011;3265;42.694;23.282;2022-11-15T01:57:19;153.33;;;69.77;;
6463;SDS011;3265;42.694;23.282;2022-11-15T01:59:46;152.13;;;70.57;;
6463;SDS011;3265;42.694;23.282;2022-11-15T02:02:15;143.60;;;69.40;;
6463;SDS011;3265;42.694;23.282;2022-11-15T02:04:42;139.23;;;65.50;;
6463;SDS011;3265;42.694;23.282;2022-11-15T02:07:11;136.23;;;64.93;;
6463;SDS011;3265;42.694;23.282;2022-11-15T02:09:40;135.07;;;61.90;;
6463;SDS011;3265;42.694;23.282;2022-11-15T02:12:08;120.93;;;59.80;;
6463;SDS011;3265;42.694;23.282;2022-11-15T02:14:37;126.67;;;59.07;;
6463;SDS011;3265;42.694;23.282;2022-11-15T02:17:09;137.50;;;62.90;;
6463;SDS011;3265;42.694;23.282;2022-11-15T02:22:53;134.20;;;61.33;;
6463;SDS011;3265;42.694;23.282;2022-11-15T02:25:39;137.47;;;64.83;;
6463;SDS011;3265;42.694;23.282;2022-11-15T02:28:20;146.43;;;66.97;;
6463;SDS011;3265;42.694;23.282;2022-11-15T02:31:11;147.67;;;70.03;;
6463;SDS011;3265;42.694;23.282;2022-11-15T02:33:47;158.97;;;73.00;;
6463;SDS011;3265;42.694;23.282;2022-11-15T02:36:22;165.13;;;74.83;;
6463;SDS011;3265;42.694;23.282;2022-11-15T02:38:58;162.37;;;72.27;;
6463;SDS011;3265;42.694;23.282;2022-11-15T02:41:30;161.57;;;75.97;;
6463;SDS011;3265;42.694;23.282;2022-11-15T02:44:03;156.83;;;73.53;;
6463;SDS011;3265;42.694;23.282;2022-11-15T02:46:34;153.53;;;71.33;;
6463;SDS011;3265;42.694;23.282;2022-11-15T02:49:22;150.73;;;70.60;;
6463;SDS011;3265;42.694;23.282;2022-11-15T02:51:54;143.80;;;66.97;;
6463;SDS011;3265;42.694;23.282;2022-11-15T02:54:23;147.60;;;70.10;;
6463;SDS011;3265;42.694;23.282;2022-11-15T02:56:53;148.63;;;71.20;;
6463;SDS011;3265;42.694;23.282;2022-11-15T02:59:29;152.43;;;72.53;;
6463;SDS011;3265;42.694;23.282;2022-11-15T03:02:13;151.83;;;71.73;;
6463;SDS011;3265;42.694;23.282;2022-11-15T03:04:49;150.80;;;72.80;;
6463;SDS011;3265;42.694;23.282;2022-11-15T03:07:23;162.97;;;76.13;;
6463;SDS011;3265;42.694;23.282;2022-11-15T03:09:57;164.97;;;76.20;;
6463;SDS011;3265;42.694;23.282;2022-11-15T03:12:33;176.00;;;80.67;;
6463;SDS011;3265;42.694;23.282;2022-11-15T03:15:05;166.30;;;78.73;;
6463;SDS011;3265;42.694;23.282;2022-11-15T03:17:37;173.27;;;79.53;;
6463;SDS011;3265;42.694;23.282;2022-11-15T03:20:09;164.67;;;77.23;;
6463;SDS011;3265;42.694;23.282;2022-11-15T03:22:40;150.13;;;73.53;;
6463;SDS011;3265;42.694;23.282;2022-11-15T03:25:10;149.80;;;73.70;;
6463;SDS011;3265;42.694;23.282;2022-11-15T03:27:44;158.60;;;74.73;;
6463;SDS011;3265;42.694;23.282;2022-11-15T03:30:16;150.73;;;69.97;;
6463;SDS011;3265;42.694;23.282;2022-11-15T03:32:46;149.60;;;70.63;;
6463;SDS011;3265;42.694;23.282;2022-11-15T03:35:17;144.17;;;69.93;;
6463;SDS011;3265;42.694;23.282;2022-11-15T03:37:48;146.77;;;70.37;;
6463;SDS011;3265;42.694;23.282;2022-11-15T03:40:18;160.80;;;71.10;;
6463;SDS011;3265;42.694;23.282;2022-11-15T03:42:52;154.03;;;68.77;;
6463;SDS011;3265;42.694;23.282;2022-11-15T03:45:29;141.80;;;66.07;;
6463;SDS011;3265;42.694;23.282;2022-11-15T03:48:01;140.10;;;66.93;;
6463;SDS011;3265;42.694;23.282;2022-11-15T03:50:32;146.17;;;64.93;;
6463;SDS011;3265;42.694;23.282;2022-11-15T03:53:00;123.47;;;60.00;;
6463;SDS011;3265;42.694;23.282;2022-11-15T03:55:28;126.37;;;58.93;;
6463;SDS011;3265;42.694;23.282;2022-11-15T03:57:56;122.13;;;59.00;;
6463;SDS011;3265;42.694;23.282;2022-11-15T04:00:26;137.73;;;61.07;;
6463;SDS011;3265;42.694;23.282;2022-11-15T04:02:54;132.60;;;61.37;;
6463;SDS011;3265;42.694;23.282;2022-11-15T04:05:22;128.70;;;60.20;;
6463;SDS011;3265;42.694;23.282;2022-11-15T04:07:49;129.47;;;57.00;;
6463;SDS011;3265;42.694;23.282;2022-11-15T04:10:16;120.23;;;53.20;;
6463;SDS011;3265;42.694;23.282;2022-11-15T04:12:43;118.87;;;52.40;;
6463;SDS011;3265;42.694;23.282;2022-11-15T04:15:13;106.93;;;47.13;;
6463;SDS011;3265;42.694;23.282;2022-11-15T04:17:42;104.83;;;45.03;;
6463;SDS011;3265;42.694;23.282;2022-11-15T04:20:11;106.10;;;44.33;;
6463;SDS011;3265;42.694;23.282;2022-11-15T04:23:00;111.67;;;45.20;;
6463;SDS011;3265;42.694;23.282;2022-11-15T04:25:46;119.27;;;45.77;;
6463;SDS011;3265;42.694;23.282;2022-11-15T04:28:16;113.57;;;44.63;;
6463;SDS011;3265;42.694;23.282;2022-11-15T04:30:44;114.17;;;46.87;;
6463;SDS011;3265;42.694;23.282;2022-11-15T04:33:11;112.47;;;45.80;;
6463;SDS011;3265;42.694;23.282;2022-11-15T04:35:37;122.47;;;48.03;;
6463;SDS011;3265;42.694;23.282;2022-11-15T04:38:07;108.70;;;42.67;;
6463;SDS011;3265;42.694;23.282;2022-11-15T04:40:34;106.63;;;40.43;;
6463;SDS011;3265;42.694;23.282;2022-11-15T04:43:01;94.83;;;40.10;;
6463;SDS011;3265;42.694;23.282;2022-11-15T04:45:28;97.70;;;40.37;;
6463;SDS011;3265;42.694;23.282;2022-11-15T04:47:55;93.53;;;37.80;;
6463;SDS011;3265;42.694;23.282;2022-11-15T04:50:22;98.57;;;38.03;;
6463;SDS011;3265;42.694;23.282;2022-11-15T04:52:50;102.63;;;42.13;;
6463;SDS011;3265;42.694;23.282;2022-11-15T04:55:19;113.23;;;44.50;;
6463;SDS011;3265;42.694;23.282;2022-11-15T04:57:47;100.77;;;41.10;;
6463;SDS011;3265;42.694;23.282;2022-11-15T05:00:15;100.33;;;39.57;;
6463;SDS011;3265;42.694;23.282;2022-11-15T05:02:43;94.80;;;37.17;;
6463;SDS011;3265;42.694;23.282;2022-11-15T05:05:27;89.17;;;35.03;;
6463;SDS011;3265;42.694;23.282;2022-11-15T05:07:53;104.87;;;36.70;;
6463;SDS011;3265;42.694;23.282;2022-11-15T05:10:22;96.13;;;36.70;;
6463;SDS011;3265;42.694;23.282;2022-11-15T05:12:48;106.23;;;36.70;;
6463;SDS011;3265;42.694;23.282;2022-11-15T05:15:15;116.40;;;38.33;;
6463;SDS011;3265;42.694;23.282;2022-11-15T05:17:42;116.60;;;37.77;;
6463;SDS011;3265;42.694;23.282;2022-11-15T05:20:09;116.80;;;39.47;;
6463;SDS011;3265;42.694;23.282;2022-11-15T05:22:37;112.50;;;39.10;;
6463;SDS011;3265;42.694;23.282;2022-11-15T05:25:05;122.43;;;42.53;;
6463;SDS011;3265;42.694;23.282;2022-11-15T05:27:34;115.70;;;41.47;;
6463;SDS011;3265;42.694;23.282;2022-11-15T05:30:01;119.97;;;40.10;;
6463;SDS011;3265;42.694;23.282;2022-11-15T05:32:27;112.73;;;41.83;;
6463;SDS011;3265;42.694;23.282;2022-11-15T05:34:55;127.87;;;43.13;;
6463;SDS011;3265;42.694;23.282;2022-11-15T05:37:22;137.87;;;45.40;;
6463;SDS011;3265;42.694;23.282;2022-11-15T05:39:49;122.37;;;41.87;;
6463;SDS011;3265;42.694;23.282;2022-11-15T05:42:15;131.10;;;42.77;;
6463;SDS011;3265;42.694;23.282;2022-11-15T05:44:44;139.70;;;44.23;;
6463;SDS011;3265;42.694;23.282;2022-11-15T05:47:15;131.87;;;44.33;;
6463;SDS011;3265;42.694;23.282;2022-11-15T05:49:45;119.93;;;43.97;;
6463;SDS011;3265;42.694;23.282;2022-11-15T05:52:14;128.00;;;46.13;;
6463;SDS011;3265;42.694;23.282;2022-11-15T05:54:45;128.50;;;43.73;;
6463;SDS011;3265;42.694;23.282;2022-11-15T05:57:12;132.00;;;46.03;;
6463;SDS011;3265;42.694;23.282;2022-11-15T05:59:39;127.20;;;46.70;;
6463;SDS011;3265;42.694;23.282;2022-11-15T06:02:09;129.53;;;47.67;;
6463;SDS011;3265;42.694;23.282;2022-11-15T06:04:37;127.77;;;45.90;;
6463;SDS011;3265;42.694;23.282;2022-11-15T06:07:03;117.07;;;44.50;;
6463;SDS011;3265;42.694;23.282;2022-11-15T06:09:30;104.80;;;39.70;;
6463;SDS011;3265;42.694;23.282;2022-11-15T06:11:57;135.87;;;41.43;;
6463;SDS011;3265;42.694;23.282;2022-11-15T06:14:24;117.13;;;41.20;;
6463;SDS011;3265;42.694;23.282;2022-11-15T06:16:50;110.87;;;41.93;;
6463;SDS011;3265;42.694;23.282;2022-11-15T06:19:19;114.97;;;41.00;;
6463;SDS011;3265;42.694;23.282;2022-11-15T06:21:45;122.17;;;42.83;;
6463;SDS011;3265;42.694;23.282;2022-11-15T06:24:12;117.90;;;40.80;;
6463;SDS011;3265;42.694;23.282;2022-11-15T06:26:39;116.80;;;38.83;;
6463;SDS011;3265;42.694;23.282;2022-11-15T06:29:06;118.53;;;41.77;;
6463;SDS011;3265;42.694;23.282;2022-11-15T06:31:33;119.07;;;41.77;;
6463;SDS011;3265;42.694;23.282;2022-11-15T06:34:00;111.70;;;41.00;;
6463;SDS011;3265;42.694;23.282;2022-11-15T06:36:28;122.73;;;40.50;;
6463;SDS011;3265;42.694;23.282;2022-11-15T06:38:56;113.50;;;39.87;;
6463;SDS011;3265;42.694;23.282;2022-11-15T06:41:23;111.33;;;40.60;;
6463;SDS011;3265;42.694;23.282;2022-11-15T06:43:49;118.40;;;41.87;;
6463;SDS011;3265;42.694;23.282;2022-11-15T06:46:16;119.17;;;42.07;;
6463;SDS011;3265;42.694;23.282;2022-11-15T06:48:43;114.27;;;41.33;;
6463;SDS011;3265;42.694;23.282;2022-11-15T06:51:10;127.93;;;44.30;;
6463;SDS011;3265;42.694;23.282;2022-11-15T06:53:38;115.83;;;42.90;;
6463;SDS011;3265;42.694;23.282;2022-11-15T06:56:05;122.50;;;43.27;;
6463;SDS011;3265;42.694;23.282;2022-11-15T06:58:34;114.70;;;44.27;;
6463;SDS011;3265;42.694;23.282;2022-11-15T07:01:01;124.57;;;43.90;;
6463;SDS011;3265;42.694;23.282;2022-11-15T07:03:29;115.83;;;43.10;;
6463;SDS011;3265;42.694;23.282;2022-11-15T07:05:56;126.87;;;43.23;;
6463;SDS011;3265;42.694;23.282;2022-11-15T07:08:24;127.27;;;42.27;;
6463;SDS011;3265;42.694;23.282;2022-11-15T07:10:55;114.97;;;42.70;;
6463;SDS011;3265;42.694;23.282;2022-11-15T07:13:25;122.67;;;45.07;;
6463;SDS011;3265;42.694;23.282;2022-11-15T07:15:53;125.03;;;46.00;;
6463;SDS011;3265;42.694;23.282;2022-11-15T07:18:19;127.90;;;49.00;;
6463;SDS011;3265;42.694;23.282;2022-11-15T07:20:47;144.20;;;51.33;;
6463;SDS011;3265;42.694;23.282;2022-11-15T07:23:14;146.50;;;52.63;;
6463;SDS011;3265;42.694;23.282;2022-11-15T07:25:40;134.53;;;53.33;;
6463;SDS011;3265;42.694;23.282;2022-11-15T07:28:09;140.50;;;52.47;;
6463;SDS011;3265;42.694;23.282;2022-11-15T07:30:35;156.40;;;54.53;;
6463;SDS011;3265;42.694;23.282;2022-11-15T07:33:02;152.97;;;53.13;;
6463;SDS011;3265;42.694;23.282;2022-11-15T07:35:29;141.67;;;53.17;;
6463;SDS011;3265;42.694;23.282;2022-11-15T07:37:56;141.33;;;52.33;;
6463;SDS011;3265;42.694;23.282;2022-11-15T07:40:24;144.30;;;53.37;;
6463;SDS011;3265;42.694;23.282;2022-11-15T07:42:51;140.93;;;51.97;;
6463;SDS011;3265;42.694;23.282;2022-11-15T07:45:23;156.13;;;56.50;;
6463;SDS011;3265;42.694;23.282;2022-11-15T07:47:52;168.13;;;60.13;;
6463;SDS011;3265;42.694;23.282;2022-11-15T07:50:18;178.73;;;61.20;;
6463;SDS011;3265;42.694;23.282;2022-11-15T07:52:45;166.70;;;59.23;;
6463;SDS011;3265;42.694;23.282;2022-11-15T07:55:12;185.00;;;63.30;;
6463;SDS011;3265;42.694;23.282;2022-11-15T07:57:39;183.10;;;62.47;;
6463;SDS011;3265;42.694;23.282;2022-11-15T08:00:06;186.50;;;62.07;;
6463;SDS011;3265;42.694;23.282;2022-11-15T08:02:35;166.47;;;60.00;;
6463;SDS011;3265;42.694;23.282;2022-11-15T08:05:02;167.50;;;58.93;;
6463;SDS011;3265;42.694;23.282;2022-11-15T08:07:30;157.63;;;57.10;;
6463;SDS011;3265;42.694;23.282;2022-11-15T08:09:59;160.60;;;58.20;;
6463;SDS011;3265;42.694;23.282;2022-11-15T08:12:33;170.13;;;61.03;;
6463;SDS011;3265;42.694;23.282;2022-11-15T08:14:59;176.07;;;63.63;;
6463;SDS011;3265;42.694;23.282;2022-11-15T08:17:26;173.00;;;61.53;;
6463;SDS011;3265;42.694;23.282;2022-11-15T08:19:58;180.87;;;63.87;;
6463;SDS011;3265;42.694;23.282;2022-11-15T08:22:25;183.60;;;62.23;;
6463;SDS011;3265;42.694;23.282;2022-11-15T08:24:52;168.30;;;61.43;;
6463;SDS011;3265;42.694;23.282;2022-11-15T08:27:19;176.77;;;63.00;;
6463;SDS011;3265;42.694;23.282;2022-11-15T08:29:47;172.77;;;64.07;;
6463;SDS011;3265;42.694;23.282;2022-11-15T08:32:15;166.30;;;61.40;;
6463;SDS011;3265;42.694;23.282;2022-11-15T08:34:42;169.30;;;62.40;;
6463;SDS011;3265;42.694;23.282;2022-11-15T08:37:14;152.47;;;58.40;;
6463;SDS011;3265;42.694;23.282;2022-11-15T08:39:40;166.50;;;61.60;;
6463;SDS011;3265;42.694;23.282;2022-11-15T08:42:07;175.00;;;61.73;;
6463;SDS011;3265;42.694;23.282;2022-11-15T08:44:34;171.17;;;62.07;;
6463;SDS011;3265;42.694;23.282;2022-11-15T08:47:01;177.27;;;63.00;;
6463;SDS011;3265;42.694;23.282;2022-11-15T08:49:27;170.73;;;61.20;;
6463;SDS011;3265;42.694;23.282;2022-11-15T08:51:54;161.43;;;60.23;;
6463;SDS011;3265;42.694;23.282;2022-11-15T08:54:22;158.87;;;58.20;;
6463;SDS011;3265;42.694;23.282;2022-11-15T08:56:49;162.77;;;58.60;;
6463;SDS011;3265;42.694;23.282;2022-11-15T08:59:16;150.50;;;57.30;;
6463;SDS011;3265;42.694;23.282;2022-11-15T09:01:43;151.63;;;57.60;;
6463;SDS011;3265;42.694;23.282;2022-11-15T09:04:09;156.00;;;60.70;;
6463;SDS011;3265;42.694;23.282;2022-11-15T09:06:36;159.93;;;59.47;;
6463;SDS011;3265;42.694;23.282;2022-11-15T09:09:03;151.27;;;58.40;;
6463;SDS011;3265;42.694;23.282;2022-11-15T09:11:31;160.50;;;60.00;;
6463;SDS011;3265;42.694;23.282;2022-11-15T09:13:58;146.63;;;58.87;;
6463;SDS011;3265;42.694;23.282;2022-11-15T09:16:25;152.70;;;57.27;;
6463;SDS011;3265;42.694;23.282;2022-11-15T09:18:52;143.97;;;57.27;;
6463;SDS011;3265;42.694;23.282;2022-11-15T09:21:19;154.70;;;60.97;;
6463;SDS011;3265;42.694;23.282;2022-11-15T09:23:46;143.83;;;56.33;;
6463;SDS011;3265;42.694;23.282;2022-11-15T09:26:12;134.23;;;53.80;;
6463;SDS011;3265;42.694;23.282;2022-11-15T09:28:41;131.57;;;54.90;;
6463;SDS011;3265;42.694;23.282;2022-11-15T09:31:11;130.57;;;52.50;;
6463;SDS011;3265;42.694;23.282;2022-11-15T09:33:51;144.27;;;57.40;;
6463;SDS011;3265;42.694;23.282;2022-11-15T09:36:18;136.57;;;54.83;;
6463;SDS011;3265;42.694;23.282;2022-11-15T09:38:45;139.63;;;56.70;;
6463;SDS011;3265;42.694;23.282;2022-11-15T09:41:22;131.20;;;54.03;;
6463;SDS011;3265;42.694;23.282;2022-11-15T09:44:06;135.90;;;54.87;;
6463;SDS011;3265;42.694;23.282;2022-11-15T09:47:01;126.93;;;51.37;;
6463;SDS011;3265;42.694;23.282;2022-11-15T09:49:41;116.47;;;48.90;;
6463;SDS011;3265;42.694;23.282;2022-11-15T09:52:08;114.33;;;50.40;;
6463;SDS011;3265;42.694;23.282;2022-11-15T09:54:37;114.43;;;51.70;;
6463;SDS011;3265;42.694;23.282;2022-11-15T09:57:06;114.90;;;51.13;;
6463;SDS011;3265;42.694;23.282;2022-11-15T09:59:47;108.77;;;49.90;;
6463;SDS011;3265;42.694;23.282;2022-11-15T10:02:27;114.73;;;49.93;;
6463;SDS011;3265;42.694;23.282;2022-11-15T10:05:04;104.73;;;47.83;;
6463;SDS011;3265;42.694;23.282;2022-11-15T10:07:37;106.13;;;48.00;;
6463;SDS011;3265;42.694;23.282;2022-11-15T10:10:23;99.83;;;46.20;;
6463;SDS011;3265;42.694;23.282;2022-11-15T10:12:56;93.50;;;45.10;;
6463;SDS011;3265;42.694;23.282;2022-11-15T10:15:24;94.93;;;47.63;;
6463;SDS011;3265;42.694;23.282;2022-11-15T10:17:55;95.93;;;46.03;;
6463;SDS011;3265;42.694;23.282;2022-11-15T10:20:32;96.97;;;46.37;;
6463;SDS011;3265;42.694;23.282;2022-11-15T10:23:06;92.60;;;46.77;;
6463;SDS011;3265;42.694;23.282;2022-11-15T10:25:38;96.43;;;46.20;;
6463;SDS011;3265;42.694;23.282;2022-11-15T10:28:09;92.37;;;46.20;;
6463;SDS011;3265;42.694;23.282;2022-11-15T10:30:49;94.03;;;47.37;;
6463;SDS011;3265;42.694;23.282;2022-11-15T10:33:20;85.23;;;45.50;;
6463;SDS011;3265;42.694;23.282;2022-11-15T10:38:54;89.77;;;47.07;;
6463;SDS011;3265;42.694;23.282;2022-11-15T10:41:37;89.33;;;45.90;;
6463;SDS011;3265;42.694;23.282;2022-11-15T10:49:54;89.90;;;47.27;;
6463;SDS011;3265;42.694;23.282;2022-11-15T10:52:23;81.97;;;46.23;;
6463;SDS011;3265;42.694;23.282;2022-11-15T10:54:52;83.87;;;45.97;;
6463;SDS011;3265;42.694;23.282;2022-11-15T10:57:23;86.43;;;45.80;;
6463;SDS011;3265;42.694;23.282;2022-11-15T10:59:54;88.73;;;47.57;;
6463;SDS011;3265;42.694;23.282;2022-11-15T11:02:28;80.00;;;46.47;;
6463;SDS011;3265;42.694;23.282;2022-11-15T11:04:57;85.83;;;47.37;;
6463;SDS011;3265;42.694;23.282;2022-11-15T11:07:25;79.50;;;46.90;;
6463;SDS011;3265;42.694;23.282;2022-11-15T11:09:56;84.82;;;47.78;;
6463;SDS011;3265;42.694;23.282;2022-11-15T11:12:27;80.90;;;48.58;;
6463;SDS011;3265;42.694;23.282;2022-11-15T11:14:57;82.85;;;46.75;;
6463;SDS011;3265;42.694;23.282;2022-11-15T11:17:26;90.72;;;47.80;;
6463;SDS011;3265;42.694;23.282;2022-11-15T11:20:04;87.85;;;47.92;;
6463;SDS011;3265;42.694;23.282;2022-11-15T11:22:38;83.75;;;48.40;;
6463;SDS011;3265;42.694;23.282;2022-11-15T11:25:18;91.57;;;48.63;;
6463;SDS011;3265;42.694;23.282;2022-11-15T11:28:15;91.75;;;50.10;;
6463;SDS011;3265;42.694;23.282;2022-11-15T11:30:55;90.65;;;50.50;;
6463;SDS011;3265;42.694;23.282;2022-11-15T11:33:33;88.60;;;50.03;;
6463;SDS011;3265;42.694;23.282;2022-11-15T11:36:09;94.95;;;50.97;;
6463;SDS011;3265;42.694;23.282;2022-11-15T11:38:57;92.15;;;52.15;;
6463;SDS011;3265;42.694;23.282;2022-11-15T11:41:43;95.43;;;53.17;;
6463;SDS011;3265;42.694;23.282;2022-11-15T11:44:22;98.85;;;52.65;;
6463;SDS011;3265;42.694;23.282;2022-11-15T11:46:55;96.57;;;53.25;;
6463;SDS011;3265;42.694;23.282;2022-11-15T11:49:29;96.13;;;52.53;;
6463;SDS011;3265;42.694;23.282;2022-11-15T11:52:02;94.22;;;52.33;;
6463;SDS011;3265;42.694;23.282;2022-11-15T11:54:37;97.35;;;52.72;;
6463;SDS011;3265;42.694;23.282;2022-11-15T11:57:11;91.35;;;52.03;;
6463;SDS011;3265;42.694;23.282;2022-11-15T11:59:48;92.93;;;52.92;;
6463;SDS011;3265;42.694;23.282;2022-11-15T12:02:21;100.57;;;53.50;;
6463;SDS011;3265;42.694;23.282;2022-11-15T12:05:01;112.40;;;63.60;;
6463;SDS011;3265;42.694;23.282;2022-11-15T12:07:34;91.85;;;52.47;;
6463;SDS011;3265;42.694;23.282;2022-11-15T12:10:11;96.85;;;53.17;;
6463;SDS011;3265;42.694;23.282;2022-11-15T12:12:47;97.03;;;55.13;;
6463;SDS011;3265;42.694;23.282;2022-11-15T12:15:21;102.90;;;55.95;;
6463;SDS011;3265;42.694;23.282;2022-11-15T12:17:50;99.18;;;54.83;;
6463;SDS011;3265;42.694;23.282;2022-11-15T12:20:21;94.32;;;52.83;;
6463;SDS011;3265;42.694;23.282;2022-11-15T12:22:52;98.97;;;55.25;;
6463;SDS011;3265;42.694;23.282;2022-11-15T12:25:24;99.15;;;54.20;;
6463;SDS011;3265;42.694;23.282;2022-11-15T12:27:58;95.95;;;55.65;;
6463;SDS011;3265;42.694;23.282;2022-11-15T12:30:37;107.38;;;55.17;;
6463;SDS011;3265;42.694;23.282;2022-11-15T12:36:11;100.72;;;56.15;;
6463;SDS011;3265;42.694;23.282;2022-11-15T12:38:56;98.43;;;57.40;;
6463;SDS011;3265;42.694;23.282;2022-11-15T12:41:24;102.80;;;55.72;;
6463;SDS011;3265;42.694;23.282;2022-11-15T12:43:52;104.80;;;57.17;;
6463;SDS011;3265;42.694;23.282;2022-11-15T12:46:21;99.75;;;55.75;;
6463;SDS011;3265;42.694;23.282;2022-11-15T12:48:59;103.90;;;57.05;;
6463;SDS011;3265;42.694;23.282;2022-11-15T12:57:51;104.60;;;56.28;;
6463;SDS011;3265;42.694;23.282;2022-11-15T13:03:24;114.00;;;57.70;;
6463;SDS011;3265;42.694;23.282;2022-11-15T13:05:56;106.97;;;57.60;;
6463;SDS011;3265;42.694;23.282;2022-11-15T13:08:41;97.75;;;55.33;;
6463;SDS011;3265;42.694;23.282;2022-11-15T13:17:12;103.93;;;55.85;;
6463;SDS011;3265;42.694;23.282;2022-11-15T13:20:08;95.10;;;54.75;;
6463;SDS011;3265;42.694;23.282;2022-11-15T13:23:00;99.45;;;56.08;;
6463;SDS011;3265;42.694;23.282;2022-11-15T13:28:37;101.80;;;55.35;;
6463;SDS011;3265;42.694;23.282;2022-11-15T13:31:20;101.72;;;56.63;;
6463;SDS011;3265;42.694;23.282;2022-11-15T13:33:50;98.82;;;55.17;;
6463;SDS011;3265;42.694;23.282;2022-11-15T13:36:19;100.68;;;56.35;;
6463;SDS011;3265;42.694;23.282;2022-11-15T13:38:56;101.20;;;57.08;;
6463;SDS011;3265;42.694;23.282;2022-11-15T13:41:25;101.90;;;56.17;;
6463;SDS011;3265;42.694;23.282;2022-11-15T13:43:53;106.93;;;56.13;;
6463;SDS011;3265;42.694;23.282;2022-11-15T13:46:23;102.90;;;57.50;;
6463;SDS011;3265;42.694;23.282;2022-11-15T13:48:52;104.77;;;55.30;;
6463;SDS011;3265;42.694;23.282;2022-11-15T13:51:23;108.43;;;57.03;;
6463;SDS011;3265;42.694;23.282;2022-11-15T13:53:54;104.60;;;56.80;;
6463;SDS011;3265;42.694;23.282;2022-11-15T13:56:22;107.37;;;55.60;;
6463;SDS011;3265;42.694;23.282;2022-11-15T13:58:51;110.17;;;55.07;;
6463;SDS011;3265;42.694;23.282;2022-11-15T14:01:19;106.20;;;55.40;;
6463;SDS011;3265;42.694;23.282;2022-11-15T14:03:50;106.70;;;54.07;;
6463;SDS011;3265;42.694;23.282;2022-11-15T14:06:21;109.20;;;54.27;;
6463;SDS011;3265;42.694;23.282;2022-11-15T14:12:22;114.00;;;55.03;;
6463;SDS011;3265;42.694;23.282;2022-11-15T14:14:57;101.20;;;52.07;;
6463;SDS011;3265;42.694;23.282;2022-11-15T14:17:35;104.63;;;51.43;;
6463;SDS011;3265;42.694;23.282;2022-11-15T14:22:52;106.17;;;52.93;;
6463;SDS011;3265;42.694;23.282;2022-11-15T14:25:21;102.00;;;51.13;;
6463;SDS011;3265;42.694;23.282;2022-11-15T14:28:08;104.60;;;51.50;;
6463;SDS011;3265;42.694;23.282;2022-11-15T14:30:41;101.03;;;52.00;;
6463;SDS011;3265;42.694;23.282;2022-11-15T14:33:17;100.13;;;50.57;;
6463;SDS011;3265;42.694;23.282;2022-11-15T14:35:48;100.30;;;49.50;;
6463;SDS011;3265;42.694;23.282;2022-11-15T14:38:16;102.03;;;50.40;;
6463;SDS011;3265;42.694;23.282;2022-11-15T14:40:43;106.93;;;50.03;;
6463;SDS011;3265;42.694;23.282;2022-11-15T14:43:10;95.43;;;48.23;;
6463;SDS011;3265;42.694;23.282;2022-11-15T14:45:38;109.93;;;50.27;;
6463;SDS011;3265;42.694;23.282;2022-11-15T14:48:07;96.93;;;48.33;;
6463;SDS011;3265;42.694;23.282;2022-11-15T14:50:35;91.50;;;48.57;;
6463;SDS011;3265;42.694;23.282;2022-11-15T14:53:04;98.30;;;47.03;;
6463;SDS011;3265;42.694;23.282;2022-11-15T14:55:32;91.73;;;46.23;;
6463;SDS011;3265;42.694;23.282;2022-11-15T14:58:01;88.77;;;45.27;;
6463;SDS011;3265;42.694;23.282;2022-11-15T15:00:29;93.30;;;44.63;;
6463;SDS011;3265;42.694;23.282;2022-11-15T15:02:55;88.20;;;44.93;;
6463;SDS011;3265;42.694;23.282;2022-11-15T15:05:23;92.10;;;44.63;;
6463;SDS011;3265;42.694;23.282;2022-11-15T15:07:51;95.00;;;44.67;;
6463;SDS011;3265;42.694;23.282;2022-11-15T15:10:19;88.83;;;45.37;;
6463;SDS011;3265;42.694;23.282;2022-11-15T15:12:46;88.63;;;45.10;;
6463;SDS011;3265;42.694;23.282;2022-11-15T15:15:14;97.97;;;47.77;;
6463;SDS011;3265;42.694;23.282;2022-11-15T15:17:42;137.70;;;61.77;;
6463;SDS011;3265;42.694;23.282;2022-11-15T15:20:09;160.70;;;82.70;;
6463;SDS011;3265;42.694;23.282;2022-11-15T15:22:37;172.40;;;83.77;;